createdAt,value
2016-11-28T00:00:47.844Z,0
2016-11-28T00:01:47.890Z,0
2016-11-28T00:02:47.969Z,0
2016-11-28T00:03:47.993Z,0
2016-11-28T00:04:48.041Z,0
2016-11-28T00:05:48.114Z,0
2016-11-28T00:06:48.204Z,0
2016-11-28T00:07:48.237Z,0
2016-11-28T00:08:48.314Z,0
2016-11-28T00:09:48.357Z,0
2016-11-28T00:10:48.402Z,0
2016-11-28T00:11:48.465Z,0
2016-11-28T00:12:48.529Z,0
2016-11-28T00:13:48.799Z,0
2016-11-28T00:14:48.836Z,0
2016-11-28T00:15:48.696Z,0
2016-11-28T00:16:48.728Z,0
2016-11-28T00:17:48.808Z,0
2016-11-28T00:18:48.842Z,0
2016-11-28T00:19:48.899Z,0
2016-11-28T00:20:48.989Z,0
2016-11-28T00:21:49.043Z,0
2016-11-28T00:22:49.118Z,0
2016-11-28T00:23:49.146Z,0
2016-11-28T00:24:49.218Z,0
2016-11-28T00:25:49.275Z,0
2016-11-28T00:26:49.333Z,0
2016-11-28T00:27:49.415Z,0
2016-11-28T00:28:49.428Z,0
2016-11-28T00:29:49.508Z,0
2016-11-28T00:30:49.543Z,0
2016-11-28T00:31:49.585Z,0
2016-11-28T00:32:49.673Z,0
2016-11-28T00:33:49.711Z,0
2016-11-28T00:34:49.772Z,0
2016-11-28T00:35:49.861Z,0
2016-11-28T00:36:49.881Z,0
2016-11-28T00:37:49.940Z,0
2016-11-28T00:38:50.015Z,0
2016-11-28T00:39:50.052Z,0
2016-11-28T00:40:50.100Z,0
2016-11-28T00:41:50.389Z,0
2016-11-28T00:42:50.531Z,0
2016-11-28T00:43:50.266Z,0
2016-11-28T00:44:50.363Z,0
2016-11-28T00:45:50.407Z,0
2016-11-28T00:46:50.470Z,0
2016-11-28T00:47:50.543Z,0
2016-11-28T00:48:50.573Z,0
2016-11-28T00:49:50.621Z,0
2016-11-28T00:50:50.677Z,0
2016-11-28T00:51:50.737Z,0
2016-11-28T00:52:50.817Z,0
2016-11-28T00:53:50.848Z,0
2016-11-28T00:54:50.908Z,0
2016-11-28T00:55:50.998Z,0
2016-11-28T00:56:51.255Z,0
2016-11-28T00:57:51.101Z,0
2016-11-28T00:58:51.123Z,0
2016-11-28T00:59:51.184Z,0
2016-11-28T01:00:51.236Z,0
2016-11-28T01:01:51.306Z,0
2016-11-28T01:02:51.368Z,0
2016-11-28T01:03:51.413Z,0
2016-11-28T01:04:51.497Z,0
2016-11-28T01:05:51.555Z,0
2016-11-28T01:06:51.591Z,0
2016-11-28T01:07:51.858Z,0
2016-11-28T01:08:51.939Z,0
2016-11-28T01:09:51.777Z,0
2016-11-28T01:10:51.854Z,0
2016-11-28T01:11:51.915Z,0
2016-11-28T01:12:51.922Z,0
2016-11-28T01:13:52.043Z,0
2016-11-28T01:14:52.077Z,0
2016-11-28T01:15:52.126Z,0
2016-11-28T01:16:52.177Z,0
2016-11-28T01:17:52.260Z,0
2016-11-28T01:18:52.277Z,0
2016-11-28T01:19:52.359Z,0
2016-11-28T01:20:52.384Z,0
2016-11-28T01:21:52.460Z,0
2016-11-28T01:22:52.536Z,0
2016-11-28T01:23:52.580Z,0
2016-11-28T01:24:52.625Z,0
2016-11-28T01:25:52.697Z,0
2016-11-28T01:26:52.762Z,0
2016-11-28T01:27:52.819Z,0
2016-11-28T01:28:52.856Z,0
2016-11-28T01:29:52.929Z,0
2016-11-28T01:30:52.960Z,0
2016-11-28T01:31:53.048Z,0
2016-11-28T01:32:53.095Z,0
2016-11-28T01:33:53.166Z,0
2016-11-28T01:34:53.396Z,0
2016-11-28T01:35:53.432Z,0
2016-11-28T01:36:53.310Z,0
2016-11-28T01:37:53.360Z,0
2016-11-28T01:38:53.434Z,0
2016-11-28T01:39:53.506Z,0
2016-11-28T01:40:53.553Z,0
2016-11-28T01:41:53.595Z,0
2016-11-28T01:42:53.675Z,0
2016-11-28T01:43:53.720Z,0
2016-11-28T01:44:53.816Z,0
2016-11-28T01:45:53.837Z,0
2016-11-28T01:46:53.869Z,0
2016-11-28T01:47:54.041Z,0
2016-11-28T01:48:53.995Z,0
2016-11-28T01:49:54.059Z,0
2016-11-28T01:50:54.124Z,0
2016-11-28T01:51:54.165Z,0
2016-11-28T01:52:54.238Z,0
2016-11-28T01:53:54.280Z,0
2016-11-28T01:54:54.362Z,0
2016-11-28T01:55:54.384Z,0
2016-11-28T01:56:54.431Z,0
2016-11-28T01:57:54.500Z,0
2016-11-28T01:58:54.568Z,0
2016-11-28T01:59:54.616Z,0
2016-11-28T02:00:54.673Z,0
2016-11-28T02:01:54.727Z,0
2016-11-28T02:02:54.993Z,0
2016-11-28T02:03:54.860Z,0
2016-11-28T02:04:54.903Z,0
2016-11-28T02:05:54.971Z,0
2016-11-28T02:06:55.025Z,0
2016-11-28T02:07:55.072Z,0
2016-11-28T02:08:55.167Z,0
2016-11-28T02:09:55.183Z,0
2016-11-28T02:10:55.250Z,0
2016-11-28T02:11:55.277Z,0
2016-11-28T02:12:55.376Z,0
2016-11-28T02:13:55.424Z,0
2016-11-28T02:14:55.455Z,0
2016-11-28T02:15:55.556Z,0
2016-11-28T02:16:55.588Z,0
2016-11-28T02:17:55.660Z,0
2016-11-28T02:18:55.693Z,0
2016-11-28T02:19:55.771Z,0
2016-11-28T02:20:55.803Z,0
2016-11-28T02:21:55.877Z,0
2016-11-28T02:22:55.951Z,0
2016-11-28T02:23:55.997Z,0
2016-11-28T02:24:56.054Z,0
2016-11-28T02:25:56.099Z,0
2016-11-28T02:26:56.159Z,0
2016-11-28T02:27:56.204Z,0
2016-11-28T02:29:11.195Z,0
2016-11-28T02:29:56.534Z,0
2016-11-28T02:30:56.417Z,0
2016-11-28T02:31:56.440Z,0
2016-11-28T02:32:56.502Z,0
2016-11-28T02:33:56.580Z,0
2016-11-28T02:34:56.604Z,0
2016-11-28T02:35:56.673Z,0
2016-11-28T02:36:56.729Z,0
2016-11-28T02:37:56.800Z,0
2016-11-28T02:38:56.858Z,0
2016-11-28T02:39:56.893Z,0
2016-11-28T02:40:56.963Z,0
2016-11-28T02:41:57.047Z,0
2016-11-28T02:42:57.074Z,0
2016-11-28T02:43:57.133Z,0
2016-11-28T02:44:57.186Z,0
2016-11-28T02:45:57.256Z,0
2016-11-28T02:46:57.317Z,0
2016-11-28T02:47:57.339Z,0
2016-11-28T02:48:57.421Z,0
2016-11-28T02:49:57.505Z,0
2016-11-28T02:50:57.518Z,0
2016-11-28T02:51:57.871Z,0
2016-11-28T02:52:57.619Z,0
2016-11-28T02:53:57.716Z,0
2016-11-28T02:54:57.747Z,0
2016-11-28T02:55:57.812Z,0
2016-11-28T02:56:58.069Z,0
2016-11-28T02:57:57.926Z,0
2016-11-28T02:58:57.993Z,0
2016-11-28T02:59:58.065Z,0
2016-11-28T03:00:58.102Z,0
2016-11-28T03:01:58.159Z,0
2016-11-28T03:02:58.213Z,0
2016-11-28T03:03:58.478Z,0
2016-11-28T03:04:58.333Z,0
2016-11-28T03:05:58.379Z,0
2016-11-28T03:06:58.445Z,0
2016-11-28T03:07:58.513Z,0
2016-11-28T03:08:58.562Z,0
2016-11-28T03:09:58.607Z,0
2016-11-28T03:10:58.666Z,0
2016-11-28T03:11:58.730Z,0
2016-11-28T03:12:58.796Z,0
2016-11-28T03:13:58.831Z,0
2016-11-28T03:14:58.908Z,0
2016-11-28T03:15:58.965Z,0
2016-11-28T03:16:58.991Z,0
2016-11-28T03:17:59.092Z,0
2016-11-28T03:18:59.136Z,0
2016-11-28T03:19:59.192Z,0
2016-11-28T03:20:59.238Z,0
2016-11-28T03:21:59.281Z,0
2016-11-28T03:22:59.353Z,0
2016-11-28T03:23:59.401Z,0
2016-11-28T03:24:59.464Z,0
2016-11-28T03:25:59.506Z,0
2016-11-28T03:26:59.576Z,0
2016-11-28T03:27:59.663Z,0
2016-11-28T03:28:59.684Z,0
2016-11-28T03:29:59.765Z,0
2016-11-28T03:31:00.115Z,0
2016-11-28T03:31:59.862Z,0
2016-11-28T03:32:59.918Z,0
2016-11-28T03:33:59.971Z,0
2016-11-28T03:35:00.044Z,0
2016-11-28T03:36:00.107Z,0
2016-11-28T03:37:00.202Z,0
2016-11-28T03:38:00.212Z,0
2016-11-28T03:39:00.278Z,0
2016-11-28T03:40:00.322Z,0
2016-11-28T03:41:00.379Z,0
2016-11-28T03:42:00.455Z,0
2016-11-28T03:43:00.498Z,0
2016-11-28T03:44:00.570Z,0
2016-11-28T03:45:00.620Z,0
2016-11-28T03:46:00.660Z,0
2016-11-28T03:47:00.731Z,0
2016-11-28T03:48:00.783Z,0
2016-11-28T03:49:00.852Z,0
2016-11-28T03:50:00.906Z,0
2016-11-28T03:51:00.971Z,0
2016-11-28T03:52:00.999Z,0
2016-11-28T03:53:01.081Z,0
2016-11-28T03:54:01.120Z,0
2016-11-28T03:55:01.189Z,0
2016-11-28T03:56:01.248Z,0
2016-11-28T03:57:01.273Z,0
2016-11-28T03:58:01.337Z,0
2016-11-28T03:59:01.399Z,0
2016-11-28T04:00:01.459Z,0
2016-11-28T04:01:01.533Z,0
2016-11-28T04:02:01.571Z,0
2016-11-28T04:03:01.623Z,0
2016-11-28T04:04:01.708Z,0
2016-11-28T04:05:01.725Z,0
2016-11-28T04:06:01.799Z,0
2016-11-28T04:07:01.852Z,0
2016-11-28T04:08:01.934Z,0
2016-11-28T04:09:01.997Z,0
2016-11-28T04:10:02.042Z,0
2016-11-28T04:11:02.084Z,0
2016-11-28T04:12:02.145Z,0
2016-11-28T04:13:02.185Z,0
2016-11-28T04:14:02.247Z,0
2016-11-28T04:15:02.342Z,0
2016-11-28T04:16:02.358Z,0
2016-11-28T04:17:02.434Z,0
2016-11-28T04:18:02.479Z,0
2016-11-28T04:19:02.552Z,0
2016-11-28T04:20:02.592Z,0
2016-11-28T04:21:02.653Z,0
2016-11-28T04:22:02.706Z,0
2016-11-28T04:23:03.061Z,0
2016-11-28T04:24:02.856Z,0
2016-11-28T04:25:02.875Z,0
2016-11-28T04:26:02.930Z,0
2016-11-28T04:27:02.999Z,0
2016-11-28T04:28:03.047Z,0
2016-11-28T04:29:03.119Z,0
2016-11-28T04:30:03.191Z,0
2016-11-28T04:31:03.242Z,0
2016-11-28T04:32:03.307Z,0
2016-11-28T04:33:03.335Z,0
2016-11-28T04:34:03.374Z,0
2016-11-28T04:35:03.440Z,0
2016-11-28T04:36:03.510Z,0
2016-11-28T04:37:03.558Z,0
2016-11-28T04:38:03.621Z,0
2016-11-28T04:39:03.668Z,0
2016-11-28T04:40:03.739Z,0
2016-11-28T04:41:03.810Z,0
2016-11-28T04:42:03.842Z,0
2016-11-28T04:43:03.893Z,0
2016-11-28T04:44:03.941Z,0
2016-11-28T04:45:04.018Z,0
2016-11-28T04:46:04.094Z,0
2016-11-28T04:47:04.432Z,0
2016-11-28T04:48:04.194Z,0
2016-11-28T04:49:04.247Z,0
2016-11-28T04:50:04.308Z,0
2016-11-28T04:51:04.347Z,0
2016-11-28T04:52:04.450Z,0
2016-11-28T04:53:04.472Z,0
2016-11-28T04:54:04.527Z,0
2016-11-28T04:55:04.586Z,0
2016-11-28T04:56:04.658Z,0
2016-11-28T04:57:04.712Z,0
2016-11-28T04:58:04.757Z,0
2016-11-28T04:59:04.809Z,0
2016-11-28T05:00:04.883Z,0
2016-11-28T05:01:04.932Z,0
2016-11-28T05:02:05.016Z,0
2016-11-28T05:03:05.034Z,0
2016-11-28T05:04:05.124Z,0
2016-11-28T05:05:05.154Z,0
2016-11-28T05:06:05.240Z,0
2016-11-28T05:07:05.281Z,0
2016-11-28T05:08:05.309Z,0
2016-11-28T05:09:05.383Z,0
2016-11-28T05:10:05.428Z,0
2016-11-28T05:11:05.501Z,0
2016-11-28T05:12:05.559Z,0
2016-11-28T05:13:05.612Z,0
2016-11-28T05:14:05.664Z,0
2016-11-28T05:15:05.734Z,0
2016-11-28T05:16:05.798Z,0
2016-11-28T05:17:05.821Z,0
2016-11-28T05:18:05.885Z,0
2016-11-28T05:19:05.936Z,0
2016-11-28T05:20:06.018Z,0
2016-11-28T05:21:06.056Z,0
2016-11-28T05:22:06.097Z,0
2016-11-28T05:23:06.201Z,0
2016-11-28T05:24:06.246Z,0
2016-11-28T05:25:06.300Z,0
2016-11-28T05:26:06.328Z,0
2016-11-28T05:27:06.638Z,0
2016-11-28T05:28:06.486Z,0
2016-11-28T05:29:06.532Z,0
2016-11-28T05:30:06.895Z,0
2016-11-28T05:31:06.940Z,0
2016-11-28T05:32:06.710Z,0
2016-11-28T05:33:06.736Z,0
2016-11-28T05:34:06.800Z,0
2016-11-28T05:35:06.874Z,0
2016-11-28T05:36:06.931Z,0
2016-11-28T05:37:06.964Z,0
2016-11-28T05:38:07.054Z,0
2016-11-28T05:39:07.096Z,0
2016-11-28T05:40:07.120Z,0
2016-11-28T05:41:07.214Z,0
2016-11-28T05:42:07.251Z,0
2016-11-28T05:43:07.314Z,0
2016-11-28T05:44:07.395Z,0
2016-11-28T05:45:07.429Z,0
2016-11-28T05:46:07.788Z,0
2016-11-28T05:47:07.557Z,0
2016-11-28T05:48:07.608Z,0
2016-11-28T05:49:07.642Z,0
2016-11-28T05:50:07.718Z,0
2016-11-28T05:51:07.774Z,0
2016-11-28T05:52:07.806Z,0
2016-11-28T05:53:07.887Z,0
2016-11-28T05:54:07.964Z,0
2016-11-28T05:55:07.986Z,0
2016-11-28T05:56:08.055Z,0
2016-11-28T05:57:08.106Z,0
2016-11-28T05:58:08.165Z,0
2016-11-28T05:59:08.213Z,0
2016-11-28T06:00:08.277Z,0
2016-11-28T06:01:08.354Z,0
2016-11-28T06:02:08.401Z,0
2016-11-28T06:03:08.485Z,0
2016-11-28T06:04:08.475Z,0
2016-11-28T06:05:08.574Z,0
2016-11-28T06:06:08.594Z,0
2016-11-28T06:07:08.684Z,0
2016-11-28T06:08:08.744Z,0
2016-11-28T06:09:08.787Z,0
2016-11-28T06:10:08.865Z,0
2016-11-28T06:11:08.924Z,0
2016-11-28T06:12:09.250Z,0
2016-11-28T06:13:09.025Z,0
2016-11-28T06:14:09.088Z,0
2016-11-28T06:15:09.102Z,0
2016-11-28T06:16:09.196Z,0
2016-11-28T06:17:09.218Z,0
2016-11-28T06:18:09.300Z,0
2016-11-28T06:19:09.349Z,0
2016-11-28T06:20:09.421Z,0
2016-11-28T06:21:09.488Z,0
2016-11-28T06:22:09.506Z,0
2016-11-28T06:23:09.570Z,0
2016-11-28T06:24:09.619Z,0
2016-11-28T06:25:09.696Z,0
2016-11-28T06:26:09.764Z,0
2016-11-28T06:27:09.797Z,0
2016-11-28T06:28:09.857Z,0
2016-11-28T06:29:09.915Z,0
2016-11-28T06:30:09.980Z,0
2016-11-28T06:31:10.051Z,0
2016-11-28T06:32:10.104Z,0
2016-11-28T06:33:10.157Z,0
2016-11-28T06:34:10.228Z,0
2016-11-28T06:35:10.272Z,0
2016-11-28T06:36:10.319Z,0
2016-11-28T06:37:10.383Z,0
2016-11-28T06:38:10.430Z,0
2016-11-28T06:39:10.478Z,0
2016-11-28T06:40:10.523Z,0
2016-11-28T06:41:10.628Z,0
2016-11-28T06:42:10.658Z,0
2016-11-28T06:43:10.709Z,0
2016-11-28T06:44:10.771Z,0
2016-11-28T06:45:10.828Z,0
2016-11-28T06:46:10.908Z,0
2016-11-28T06:47:10.942Z,0
2016-11-28T06:48:11.005Z,0
2016-11-28T06:49:11.057Z,0
2016-11-28T06:50:11.128Z,0
2016-11-28T06:51:11.165Z,0
2016-11-28T06:52:11.223Z,0
2016-11-28T06:53:11.275Z,0
2016-11-28T06:54:11.340Z,0
2016-11-28T06:55:11.391Z,0
2016-11-28T06:56:11.446Z,5
2016-11-28T06:57:11.507Z,5
2016-11-28T06:58:11.579Z,5
2016-11-28T06:59:11.644Z,5
2016-11-28T07:00:11.671Z,5
2016-11-28T07:01:11.727Z,5
2016-11-28T07:02:11.828Z,5
2016-11-28T07:03:12.142Z,5
2016-11-28T07:04:11.892Z,5
2016-11-28T07:05:11.968Z,5
2016-11-28T07:06:12.022Z,5
2016-11-28T07:07:12.069Z,5
2016-11-28T07:08:12.127Z,5
2016-11-28T07:09:12.185Z,5
2016-11-28T07:10:12.244Z,5
2016-11-28T07:11:12.315Z,5
2016-11-28T07:12:12.370Z,5
2016-11-28T07:13:12.429Z,5
2016-11-28T07:14:12.440Z,5
2016-11-28T07:15:12.549Z,5
2016-11-28T07:16:12.597Z,5
2016-11-28T07:17:12.632Z,10
2016-11-28T07:18:12.705Z,10
2016-11-28T07:19:12.721Z,10
2016-11-28T07:20:12.816Z,10
2016-11-28T07:21:12.866Z,10
2016-11-28T07:22:12.929Z,10
2016-11-28T07:23:12.975Z,10
2016-11-28T07:24:13.035Z,10
2016-11-28T07:25:13.080Z,10
2016-11-28T07:26:13.136Z,10
2016-11-28T07:27:13.198Z,10
2016-11-28T07:28:13.252Z,10
2016-11-28T07:29:13.324Z,10
2016-11-28T07:30:13.379Z,10
2016-11-28T07:31:13.430Z,10
2016-11-28T07:32:13.483Z,10
2016-11-28T07:33:13.568Z,10
2016-11-28T07:34:13.580Z,10
2016-11-28T07:35:13.654Z,10
2016-11-28T07:36:13.696Z,10
2016-11-28T07:37:13.766Z,10
2016-11-28T07:38:13.856Z,15
2016-11-28T07:39:13.883Z,15
2016-11-28T07:40:14.270Z,15
2016-11-28T07:41:14.308Z,15
2016-11-28T07:42:14.061Z,15
2016-11-28T07:43:14.114Z,15
2016-11-28T07:44:14.144Z,15
2016-11-28T07:45:14.204Z,15
2016-11-28T07:46:14.266Z,15
2016-11-28T07:47:14.322Z,15
2016-11-28T07:48:14.377Z,15
2016-11-28T07:49:14.458Z,15
2016-11-28T07:50:14.498Z,15
2016-11-28T07:51:14.585Z,15
2016-11-28T07:52:14.619Z,15
2016-11-28T07:53:14.681Z,15
2016-11-28T07:54:14.725Z,15
2016-11-28T07:55:14.799Z,15
2016-11-28T07:56:14.841Z,15
2016-11-28T07:57:14.882Z,15
2016-11-28T07:58:14.957Z,15
2016-11-28T07:59:15.007Z,15
2016-11-28T08:00:15.081Z,15
2016-11-28T08:01:15.130Z,15
2016-11-28T08:02:15.207Z,15
2016-11-28T08:03:15.249Z,15
2016-11-28T08:04:15.276Z,15
2016-11-28T08:05:15.371Z,15
2016-11-28T08:06:15.410Z,20
2016-11-28T08:07:15.457Z,20
2016-11-28T08:08:15.512Z,20
2016-11-28T08:09:15.587Z,20
2016-11-28T08:10:15.624Z,20
2016-11-28T08:11:15.717Z,20
2016-11-28T08:12:15.770Z,20
2016-11-28T08:13:15.833Z,20
2016-11-28T08:14:15.839Z,20
2016-11-28T08:15:15.910Z,20
2016-11-28T08:16:15.969Z,20
2016-11-28T08:17:16.021Z,20
2016-11-28T08:18:16.093Z,20
2016-11-28T08:19:16.145Z,20
2016-11-28T08:20:16.414Z,20
2016-11-28T08:21:16.239Z,20
2016-11-28T08:22:16.307Z,20
2016-11-28T08:23:16.395Z,20
2016-11-28T08:24:16.423Z,20
2016-11-28T08:25:16.491Z,20
2016-11-28T08:26:16.574Z,20
2016-11-28T08:27:16.632Z,20
2016-11-28T08:28:16.656Z,20
2016-11-28T08:29:16.713Z,20
2016-11-28T08:30:16.756Z,20
2016-11-28T08:31:16.832Z,20
2016-11-28T08:32:16.911Z,20
2016-11-28T08:33:16.929Z,20
2016-11-28T08:34:17.014Z,25
2016-11-28T08:35:17.049Z,25
2016-11-28T08:36:17.137Z,25
2016-11-28T08:37:17.142Z,25
2016-11-28T08:38:17.222Z,25
2016-11-28T08:39:17.274Z,25
2016-11-28T08:40:17.344Z,25
2016-11-28T08:41:17.409Z,25
2016-11-28T08:42:17.444Z,25
2016-11-28T08:43:17.538Z,25
2016-11-28T08:44:17.593Z,25
2016-11-28T08:45:17.654Z,25
2016-11-28T08:46:17.671Z,25
2016-11-28T08:47:17.741Z,25
2016-11-28T08:48:17.824Z,25
2016-11-28T08:49:17.860Z,25
2016-11-28T08:50:17.918Z,25
2016-11-28T08:51:17.981Z,25
2016-11-28T08:52:18.020Z,25
2016-11-28T08:53:18.076Z,25
2016-11-28T08:54:18.170Z,25
2016-11-28T08:55:18.209Z,25
2016-11-28T08:56:18.256Z,25
2016-11-28T08:57:18.327Z,25
2016-11-28T08:58:18.378Z,25
2016-11-28T08:59:18.440Z,25
2016-11-28T09:00:18.494Z,25
2016-11-28T09:01:18.567Z,25
2016-11-28T09:02:18.600Z,25
2016-11-28T09:03:18.681Z,25
2016-11-28T09:04:18.702Z,25
2016-11-28T09:05:18.753Z,25
2016-11-28T09:06:18.953Z,25
2016-11-28T09:07:18.883Z,25
2016-11-28T09:08:18.950Z,25
2016-11-28T09:09:19.017Z,25
2016-11-28T09:10:19.050Z,25
2016-11-28T09:11:19.108Z,25
2016-11-28T09:12:19.145Z,25
2016-11-28T09:13:19.216Z,25
2016-11-28T09:14:19.277Z,25
2016-11-28T09:15:19.385Z,25
2016-11-28T09:16:19.375Z,25
2016-11-28T09:17:19.451Z,25
2016-11-28T09:18:19.500Z,25
2016-11-28T09:19:19.566Z,25
2016-11-28T09:20:19.637Z,25
2016-11-28T09:21:19.696Z,25
2016-11-28T09:22:19.737Z,25
2016-11-28T09:23:19.797Z,25
2016-11-28T09:24:19.866Z,25
2016-11-28T09:25:19.895Z,25
2016-11-28T09:26:19.975Z,25
2016-11-28T09:27:20.057Z,25
2016-11-28T09:28:20.096Z,25
2016-11-28T09:29:20.134Z,25
2016-11-28T09:30:20.240Z,25
2016-11-28T09:31:20.263Z,25
2016-11-28T09:32:20.310Z,25
2016-11-28T09:33:20.384Z,25
2016-11-28T09:34:20.441Z,25
2016-11-28T09:35:20.502Z,25
2016-11-28T09:36:20.564Z,25
2016-11-28T09:37:20.607Z,25
2016-11-28T09:38:20.688Z,30
2016-11-28T09:39:20.732Z,30
2016-11-28T09:40:20.801Z,30
2016-11-28T09:41:20.856Z,30
2016-11-28T09:42:20.910Z,30
2016-11-28T09:43:20.953Z,30
2016-11-28T09:44:20.998Z,30
2016-11-28T09:45:21.055Z,30
2016-11-28T09:46:21.151Z,30
2016-11-28T09:47:21.184Z,30
2016-11-28T09:48:21.228Z,30
2016-11-28T09:49:21.305Z,30
2016-11-28T09:50:21.362Z,30
2016-11-28T09:51:21.396Z,30
2016-11-28T09:52:21.458Z,30
2016-11-28T09:53:21.536Z,30
2016-11-28T09:54:21.624Z,30
2016-11-28T09:55:21.623Z,30
2016-11-28T09:56:21.724Z,30
2016-11-28T09:57:21.756Z,30
2016-11-28T09:58:21.817Z,30
2016-11-28T09:59:21.885Z,30
2016-11-28T10:00:21.927Z,30
2016-11-28T10:01:22.001Z,30
2016-11-28T10:02:22.034Z,35
2016-11-28T10:03:22.131Z,35
2016-11-28T10:04:22.185Z,35
2016-11-28T10:05:22.226Z,35
2016-11-28T10:06:22.285Z,35
2016-11-28T10:07:22.347Z,35
2016-11-28T10:08:22.377Z,35
2016-11-28T10:09:22.454Z,35
2016-11-28T10:10:22.504Z,35
2016-11-28T10:11:22.571Z,35
2016-11-28T10:12:22.632Z,35
2016-11-28T10:13:22.677Z,35
2016-11-28T10:14:22.744Z,35
2016-11-28T10:15:22.770Z,35
2016-11-28T10:16:22.876Z,35
2016-11-28T10:17:22.920Z,35
2016-11-28T10:18:22.975Z,35
2016-11-28T10:19:23.052Z,35
2016-11-28T10:20:23.102Z,35
2016-11-28T10:21:23.153Z,35
2016-11-28T10:22:23.179Z,35
2016-11-28T10:23:23.249Z,35
2016-11-28T10:24:23.332Z,35
2016-11-28T10:25:23.697Z,35
2016-11-28T10:26:23.460Z,35
2016-11-28T10:27:23.507Z,35
2016-11-28T10:28:23.537Z,35
2016-11-28T10:29:23.615Z,35
2016-11-28T10:30:23.666Z,35
2016-11-28T10:31:23.704Z,35
2016-11-28T10:32:24.136Z,35
2016-11-28T10:33:23.858Z,35
2016-11-28T10:34:23.889Z,35
2016-11-28T10:35:23.970Z,35
2016-11-28T10:36:24.041Z,35
2016-11-28T10:37:24.070Z,35
2016-11-28T10:38:24.139Z,35
2016-11-28T10:39:24.517Z,35
2016-11-28T10:40:24.253Z,35
2016-11-28T10:41:24.312Z,35
2016-11-28T10:42:24.373Z,35
2016-11-28T10:43:24.420Z,40
2016-11-28T10:44:24.486Z,40
2016-11-28T10:45:24.567Z,40
2016-11-28T10:46:24.624Z,40
2016-11-28T10:47:24.663Z,40
2016-11-28T10:48:24.723Z,40
2016-11-28T10:49:24.787Z,40
2016-11-28T10:50:24.815Z,40
2016-11-28T10:51:24.913Z,40
2016-11-28T10:52:24.952Z,35
2016-11-28T10:53:25.004Z,40
2016-11-28T10:54:25.080Z,40
2016-11-28T10:55:25.140Z,40
2016-11-28T10:56:25.180Z,40
2016-11-28T10:57:25.265Z,40
2016-11-28T10:58:25.319Z,40
2016-11-28T10:59:25.367Z,40
2016-11-28T11:00:25.411Z,40
2016-11-28T11:01:25.493Z,40
2016-11-28T11:02:25.576Z,40
2016-11-28T11:03:25.580Z,40
2016-11-28T11:04:25.682Z,40
2016-11-28T11:05:25.964Z,40
2016-11-28T11:06:25.797Z,40
2016-11-28T11:07:25.844Z,40
2016-11-28T11:08:25.904Z,40
2016-11-28T11:09:26.716Z,40
2016-11-28T11:10:26.009Z,40
2016-11-28T11:11:26.080Z,40
2016-11-28T11:12:26.130Z,40
2016-11-28T11:13:26.195Z,40
2016-11-28T11:14:26.259Z,40
2016-11-28T11:15:26.300Z,40
2016-11-28T11:16:26.366Z,40
2016-11-28T11:17:26.447Z,40
2016-11-28T11:18:26.479Z,40
2016-11-28T11:19:26.557Z,40
2016-11-28T11:20:26.616Z,40
2016-11-28T11:21:26.691Z,40
2016-11-28T11:22:26.721Z,40
2016-11-28T11:23:26.772Z,40
2016-11-28T11:24:26.823Z,40
2016-11-28T11:25:26.901Z,40
2016-11-28T11:26:26.973Z,40
2016-11-28T11:27:27.004Z,40
2016-11-28T11:28:27.093Z,40
2016-11-28T11:29:27.168Z,40
2016-11-28T11:30:27.217Z,40
2016-11-28T11:31:27.252Z,40
2016-11-28T11:32:27.316Z,40
2016-11-28T11:33:27.367Z,40
2016-11-28T11:34:27.434Z,40
2016-11-28T11:35:27.490Z,40
2016-11-28T11:36:27.562Z,40
2016-11-28T11:37:27.610Z,40
2016-11-28T11:38:27.672Z,40
2016-11-28T11:39:27.703Z,40
2016-11-28T11:40:27.790Z,40
2016-11-28T11:41:27.835Z,40
2016-11-28T11:42:27.916Z,40
2016-11-28T11:43:27.973Z,40
2016-11-28T11:44:28.169Z,40
2016-11-28T11:45:28.085Z,40
2016-11-28T11:46:28.157Z,40
2016-11-28T11:47:28.194Z,40
2016-11-28T11:48:28.233Z,40
2016-11-28T11:49:28.315Z,40
2016-11-28T11:50:28.377Z,40
2016-11-28T11:51:28.414Z,40
2016-11-28T11:52:28.504Z,40
2016-11-28T11:53:28.552Z,40
2016-11-28T11:54:28.624Z,40
2016-11-28T11:55:28.664Z,40
2016-11-28T11:56:28.723Z,40
2016-11-28T11:57:28.793Z,40
2016-11-28T11:58:28.847Z,40
2016-11-28T11:59:29.305Z,40
2016-11-28T12:00:28.955Z,40
2016-11-28T12:01:29.010Z,40
2016-11-28T12:02:29.084Z,40
2016-11-28T12:03:29.119Z,40
2016-11-28T12:04:29.186Z,40
2016-11-28T12:05:29.255Z,40
2016-11-28T12:06:29.320Z,40
2016-11-28T12:07:29.371Z,40
2016-11-28T12:08:29.432Z,40
2016-11-28T12:09:29.481Z,40
2016-11-28T12:10:29.561Z,40
2016-11-28T12:11:29.924Z,40
2016-11-28T12:12:29.657Z,40
2016-11-28T12:13:29.710Z,40
2016-11-28T12:14:29.822Z,40
2016-11-28T12:15:29.823Z,40
2016-11-28T12:16:29.909Z,40
2016-11-28T12:17:30.285Z,40
2016-11-28T12:18:30.035Z,40
2016-11-28T12:19:30.093Z,40
2016-11-28T12:20:30.162Z,50
2016-11-28T12:21:30.220Z,40
2016-11-28T12:22:30.246Z,40
2016-11-28T12:23:30.318Z,40
2016-11-28T12:24:30.373Z,40
2016-11-28T12:25:30.426Z,40
2016-11-28T12:26:30.488Z,40
2016-11-28T12:27:30.555Z,40
2016-11-28T12:28:30.598Z,40
2016-11-28T12:29:30.665Z,40
2016-11-28T12:30:31.633Z,40
2016-11-28T12:31:30.788Z,40
2016-11-28T12:32:30.836Z,40
2016-11-28T12:33:30.901Z,40
2016-11-28T12:34:31.262Z,40
2016-11-28T12:35:31.213Z,40
2016-11-28T12:36:31.091Z,40
2016-11-28T12:37:31.152Z,40
2016-11-28T12:38:31.186Z,40
2016-11-28T12:39:31.236Z,40
2016-11-28T12:40:31.518Z,40
2016-11-28T12:41:31.559Z,40
2016-11-28T12:42:31.417Z,40
2016-11-28T12:43:31.496Z,40
2016-11-28T12:44:31.520Z,40
2016-11-28T12:45:33.114Z,40
2016-11-28T12:46:31.671Z,40
2016-11-28T12:47:31.707Z,40
2016-11-28T12:48:31.778Z,40
2016-11-28T12:49:31.845Z,40
2016-11-28T12:50:31.900Z,35
2016-11-28T12:51:31.958Z,35
2016-11-28T12:52:32.003Z,35
2016-11-28T12:53:32.057Z,35
2016-11-28T12:54:32.132Z,35
2016-11-28T12:55:32.182Z,35
2016-11-28T12:56:32.234Z,35
2016-11-28T12:57:32.311Z,35
2016-11-28T12:58:32.365Z,35
2016-11-28T12:59:32.409Z,35
2016-11-28T13:00:32.471Z,35
2016-11-28T13:01:32.516Z,35
2016-11-28T13:02:32.593Z,35
2016-11-28T13:03:32.640Z,35
2016-11-28T13:04:32.681Z,35
2016-11-28T13:05:32.743Z,35
2016-11-28T13:06:32.814Z,35
2016-11-28T13:07:32.847Z,35
2016-11-28T13:08:32.985Z,35
2016-11-28T13:09:32.962Z,35
2016-11-28T13:10:33.026Z,35
2016-11-28T13:11:33.090Z,30
2016-11-28T13:12:33.161Z,30
2016-11-28T13:13:33.223Z,30
2016-11-28T13:14:33.295Z,30
2016-11-28T13:15:33.326Z,30
2016-11-28T13:16:33.384Z,30
2016-11-28T13:17:33.469Z,30
2016-11-28T13:18:33.508Z,30
2016-11-28T13:19:33.551Z,30
2016-11-28T13:20:33.606Z,30
2016-11-28T13:21:33.711Z,30
2016-11-28T13:22:33.738Z,30
2016-11-28T13:23:33.805Z,30
2016-11-28T13:24:33.852Z,30
2016-11-28T13:25:33.927Z,30
2016-11-28T13:26:33.975Z,30
2016-11-28T13:27:34.028Z,30
2016-11-28T13:28:34.084Z,30
2016-11-28T13:29:34.146Z,30
2016-11-28T13:30:34.197Z,30
2016-11-28T13:31:34.238Z,30
2016-11-28T13:32:34.296Z,30
2016-11-28T13:33:34.368Z,30
2016-11-28T13:34:34.413Z,25
2016-11-28T13:35:34.488Z,25
2016-11-28T13:36:34.548Z,25
2016-11-28T13:37:34.595Z,25
2016-11-28T13:38:34.985Z,25
2016-11-28T13:39:34.713Z,25
2016-11-28T13:40:34.764Z,25
2016-11-28T13:41:35.128Z,25
2016-11-28T13:42:35.159Z,25
2016-11-28T13:43:34.943Z,25
2016-11-28T13:44:34.990Z,25
2016-11-28T13:45:35.064Z,25
2016-11-28T13:46:35.127Z,25
2016-11-28T13:47:35.178Z,25
2016-11-28T13:48:35.232Z,25
2016-11-28T13:49:35.337Z,25
2016-11-28T13:50:35.323Z,25
2016-11-28T13:51:35.383Z,25
2016-11-28T13:52:35.443Z,25
2016-11-28T13:53:35.504Z,25
2016-11-28T13:54:35.556Z,25
2016-11-28T13:55:35.612Z,25
2016-11-28T13:56:35.687Z,25
2016-11-28T13:57:35.719Z,25
2016-11-28T13:58:35.817Z,20
2016-11-28T13:59:35.869Z,15
2016-11-28T14:00:35.922Z,10
2016-11-28T14:01:35.960Z,10
2016-11-28T14:02:36.026Z,5
2016-11-28T14:03:36.082Z,5
2016-11-28T14:04:36.134Z,5
2016-11-28T14:05:36.196Z,5
2016-11-28T14:06:36.240Z,5
2016-11-28T14:07:36.316Z,5
2016-11-28T14:08:36.385Z,5
2016-11-28T14:09:36.401Z,5
2016-11-28T14:10:36.463Z,5
2016-11-28T14:11:36.554Z,5
2016-11-28T14:12:36.597Z,5
2016-11-28T14:13:36.657Z,5
2016-11-28T14:14:36.709Z,5
2016-11-28T14:15:36.769Z,5
2016-11-28T14:16:36.836Z,5
2016-11-28T14:17:36.901Z,5
2016-11-28T14:18:36.950Z,5
2016-11-28T14:19:37.018Z,5
2016-11-28T14:20:37.057Z,5
2016-11-28T14:21:37.136Z,5
2016-11-28T14:22:37.184Z,5
2016-11-28T14:23:37.223Z,5
2016-11-28T14:24:37.260Z,5
2016-11-28T14:25:37.818Z,5
2016-11-28T14:26:37.387Z,5
2016-11-28T14:27:37.664Z,5
2016-11-28T14:28:41.277Z,5
2016-11-28T14:29:37.853Z,5
2016-11-28T14:30:37.615Z,5
2016-11-28T14:31:37.692Z,5
2016-11-28T14:32:38.056Z,5
2016-11-28T14:33:37.798Z,5